Time;durP1;ratioP1;P1;durP2;ratioP2;P2;SDS_P1;SDS_P2;PMS_P1;PMS_P2;Temp;Humidity;BMP_temperature;BMP_pressure;BME280_temperature;BME280_humidity;BME280_pressure;Samples;Min_cycle;Max_cycle;Signal;HPM_P1;HPM_P2
2024/03/08 00:01:00;;;;;;;37.65;26.67;;;;;;;;;;5057407;28;20025;-44
2024/03/08 00:03:26;;;;;;;92.47;29.48;;;;;;;;;;5046996;28;20024;-50
2024/03/08 00:05:53;;;;;;;43.25;25.98;;;;;;;;;;5044292;28;20268;-47
2024/03/08 00:08:20;;;;;;;30.25;24.85;;;;;;;;;;5057195;28;20021;-40
2024/03/08 00:10:46;;;;;;;35.30;25.67;;;;;;;;;;5052637;28;20032;-44
2024/03/08 00:13:13;;;;;;;37.47;26.95;;;;;;;;;;5063808;28;20324;-44
2024/03/08 00:15:41;;;;;;;40.17;26.48;;;;;;;;;;5063700;28;20078;-38
2024/03/08 00:18:07;;;;;;;37.92;26.85;;;;;;;;;;5063424;28;20016;-42
2024/03/08 00:20:34;;;;;;;32.17;25.35;;;;;;;;;;5063453;28;20025;-38
2024/03/08 00:23:01;;;;;;;45.08;25.02;;;;;;;;;;5063799;28;20365;-41
2024/03/08 00:25:27;;;;;;;32.33;25.70;;;;;;;;;;5063819;28;20029;-36
2024/03/08 00:27:57;;;;;;;74.72;28.38;;;;;;;;;;5063820;28;20029;-43
2024/03/08 00:30:25;;;;;;;42.85;25.55;;;;;;;;;;5057630;28;20048;-37
2024/03/08 00:32:51;;;;;;;38.40;26.30;;;;;;;;;;5052465;28;20025;-37
2024/03/08 00:35:18;;;;;;;38.17;24.92;;;;;;;;;;5043942;28;20306;-37
2024/03/08 00:37:47;;;;;;;31.48;24.50;;;;;;;;;;5043624;28;20299;-39
2024/03/08 00:40:14;;;;;;;30.05;25.77;;;;;;;;;;5043906;28;20310;-36
2024/03/08 00:42:43;;;;;;;30.73;25.45;;;;;;;;;;5043775;28;20075;-37
2024/03/08 00:45:10;;;;;;;29.02;24.40;;;;;;;;;;5043485;28;20029;-35
2024/03/08 00:47:37;;;;;;;27.02;24.27;;;;;;;;;;5044010;28;20028;-43
2024/03/08 00:50:04;;;;;;;36.50;24.65;;;;;;;;;;5042934;28;20029;-37
2024/03/08 00:52:30;;;;;;;40.28;24.95;;;;;;;;;;5043316;28;20036;-36
2024/03/08 00:54:57;;;;;;;30.17;23.77;;;;;;;;;;5043672;28;20025;-40
2024/03/08 00:57:24;;;;;;;59.22;25.92;;;;;;;;;;5043536;28;20027;-36
2024/03/08 00:59:50;;;;;;;35.63;22.85;;;;;;;;;;5043318;28;20017;-37
2024/03/08 01:02:19;;;;;;;47.28;24.85;;;;;;;;;;5050965;28;20304;-39
2024/03/08 01:04:47;;;;;;;128.27;30.25;;;;;;;;;;5046458;28;20258;-43
2024/03/08 01:07:13;;;;;;;40.70;24.15;;;;;;;;;;5043310;28;20022;-36
2024/03/08 01:09:40;;;;;;;57.08;24.20;;;;;;;;;;5043295;28;20028;-36
2024/03/08 01:12:07;;;;;;;34.40;22.92;;;;;;;;;;5043298;28;20021;-36
2024/03/08 01:14:34;;;;;;;34.22;22.83;;;;;;;;;;5043922;28;20025;-36
2024/03/08 01:17:00;;;;;;;33.58;22.17;;;;;;;;;;5053000;28;20018;-37
2024/03/08 01:19:27;;;;;;;31.50;22.55;;;;;;;;;;5043365;28;20306;-36
2024/03/08 01:21:56;;;;;;;31.73;23.02;;;;;;;;;;5043629;28;20352;-37
2024/03/08 01:24:23;;;;;;;27.48;22.23;;;;;;;;;;5043222;28;20322;-35
2024/03/08 01:26:50;;;;;;;41.75;23.20;;;;;;;;;;5043681;28;20075;-39
2024/03/08 01:29:17;;;;;;;34.10;22.98;;;;;;;;;;5043066;28;20036;-48
2024/03/08 01:31:43;;;;;;;28.42;22.52;;;;;;;;;;5047324;28;20318;-36
2024/03/08 01:34:10;;;;;;;29.88;22.17;;;;;;;;;;5046782;28;20191;-36
2024/03/08 01:36:37;;;;;;;50.58;22.85;;;;;;;;;;5046867;28;20018;-38
2024/03/08 01:39:07;;;;;;;26.15;22.13;;;;;;;;;;5046540;28;20094;-41
2024/03/08 01:41:35;;;;;;;27.50;22.73;;;;;;;;;;5046882;28;20029;-40
2024/03/08 01:44:05;;;;;;;25.90;22.25;;;;;;;;;;5046319;28;20090;-46
2024/03/08 01:46:31;;;;;;;30.42;24.17;;;;;;;;;;5046139;28;20061;-43
2024/03/08 01:48:58;;;;;;;31.38;24.00;;;;;;;;;;5056559;28;20025;-40
2024/03/08 01:51:25;;;;;;;39.67;23.73;;;;;;;;;;5047345;28;20032;-46
2024/03/08 01:53:51;;;;;;;32.47;23.02;;;;;;;;;;5046262;28;20026;-36
2024/03/08 01:56:18;;;;;;;32.70;24.33;;;;;;;;;;5046864;28;20037;-35
2024/03/08 01:58:47;;;;;;;28.77;23.67;;;;;;;;;;5048695;28;20036;-37
2024/03/08 02:01:16;;;;;;;57.53;25.95;;;;;;;;;;5055261;28;20033;-37
2024/03/08 02:03:46;;;;;;;32.30;23.95;;;;;;;;;;5046107;28;20017;-38
2024/03/08 02:06:14;;;;;;;31.50;22.98;;;;;;;;;;5046363;28;20025;-36
2024/03/08 02:08:43;;;;;;;30.27;23.38;;;;;;;;;;5061468;28;20040;-36
2024/03/08 02:11:10;;;;;;;32.45;24.08;;;;;;;;;;5049477;28;20078;-35
2024/03/08 02:13:37;;;;;;;29.70;23.17;;;;;;;;;;5053545;28;20139;-34
2024/03/08 02:16:04;;;;;;;29.00;23.02;;;;;;;;;;5049988;28;20031;-36
2024/03/08 02:18:34;;;;;;;34.53;22.42;;;;;;;;;;5065766;28;20017;-36
2024/03/08 02:21:04;;;;;;;25.50;22.55;;;;;;;;;;5064973;28;20037;-45
2024/03/08 02:23:31;;;;;;;25.15;22.50;;;;;;;;;;5056612;28;20014;-38
2024/03/08 02:25:58;;;;;;;31.58;23.13;;;;;;;;;;5046003;28;20021;-41
2024/03/08 02:28:28;;;;;;;29.80;22.90;;;;;;;;;;5045659;28;20021;-38
2024/03/08 02:30:58;;;;;;;35.05;22.88;;;;;;;;;;5045582;28;20028;-37
2024/03/08 02:33:25;;;;;;;28.25;23.48;;;;;;;;;;5045498;28;20110;-37
2024/03/08 02:35:52;;;;;;;27.98;23.70;;;;;;;;;;5045778;28;20183;-44
2024/03/08 02:38:19;;;;;;;31.05;23.75;;;;;;;;;;5045659;28;20025;-38
2024/03/08 02:40:47;;;;;;;25.98;23.35;;;;;;;;;;5045742;28;20025;-37
2024/03/08 02:43:14;;;;;;;29.42;23.73;;;;;;;;;;5044947;28;20045;-47
2024/03/08 02:45:45;;;;;;;25.75;23.05;;;;;;;;;;5045373;28;20041;-45
2024/03/08 02:48:12;;;;;;;30.48;24.15;;;;;;;;;;5045551;28;20025;-50
2024/03/08 02:50:44;;;;;;;29.55;23.40;;;;;;;;;;5045551;28;20022;-54
2024/03/08 02:53:12;;;;;;;30.48;23.40;;;;;;;;;;5052750;28;20021;-43
2024/03/08 02:55:40;;;;;;;33.15;23.60;;;;;;;;;;5048314;28;20245;-45
2024/03/08 02:58:14;;;;;;;32.88;23.45;;;;;;;;;;5045223;28;20075;-35
2024/03/08 03:00:41;;;;;;;37.38;24.30;;;;;;;;;;5055544;28;20048;-41
2024/03/08 03:03:08;;;;;;;36.85;23.17;;;;;;;;;;5064915;28;20036;-36
2024/03/08 03:05:34;;;;;;;32.35;24.45;;;;;;;;;;5065324;28;20067;-45
2024/03/08 03:08:01;;;;;;;30.17;24.10;;;;;;;;;;5065051;28;20021;-51
2024/03/08 03:10:28;;;;;;;32.33;23.98;;;;;;;;;;5064955;28;20092;-45
2024/03/08 03:12:54;;;;;;;45.28;24.85;;;;;;;;;;5064779;28;20056;-42
2024/03/08 03:15:21;;;;;;;34.70;24.35;;;;;;;;;;5064682;28;20092;-44
2024/03/08 03:17:48;;;;;;;31.52;23.88;;;;;;;;;;5064684;28;20227;-50
2024/03/08 03:20:22;;;;;;;26.38;23.70;;;;;;;;;;5064827;28;20017;-43
2024/03/08 03:22:51;;;;;;;34.33;24.08;;;;;;;;;;5064581;28;20325;-48
2024/03/08 03:25:33;;;;;;;30.80;23.08;;;;;;;;;;5064650;28;20032;-45
2024/03/08 03:28:00;;;;;;;29.15;24.15;;;;;;;;;;5064549;28;20036;-42
2024/03/08 03:30:30;;;;;;;29.13;23.88;;;;;;;;;;5064301;28;20096;-45
2024/03/08 03:33:00;;;;;;;27.13;24.00;;;;;;;;;;5064373;28;20067;-42
2024/03/08 03:35:27;;;;;;;31.17;23.80;;;;;;;;;;5064438;28;20029;-50
2024/03/08 03:40:32;;;;;;;31.40;24.15;;;;;;;;;;5044627;28;20044;-49
2024/03/08 03:42:59;;;;;;;26.55;23.38;;;;;;;;;;5044339;28;20029;-50
2024/03/08 03:45:26;;;;;;;26.05;23.55;;;;;;;;;;5044465;28;20112;-58
2024/03/08 03:47:53;;;;;;;27.17;24.27;;;;;;;;;;5044156;28;20087;-52
2024/03/08 03:50:20;;;;;;;26.77;24.10;;;;;;;;;;5052584;28;20020;-49
2024/03/08 03:52:50;;;;;;;34.15;24.58;;;;;;;;;;5063883;28;20044;-52
2024/03/08 03:55:16;;;;;;;27.58;24.33;;;;;;;;;;5063607;28;20329;-50
2024/03/08 03:57:45;;;;;;;28.05;25.05;;;;;;;;;;5063981;28;20033;-47
2024/03/08 04:00:12;;;;;;;30.60;26.15;;;;;;;;;;5064170;28;20020;-45
2024/03/08 04:02:39;;;;;;;32.70;25.50;;;;;;;;;;5064149;28;20020;-37
2024/03/08 04:05:06;;;;;;;29.23;25.63;;;;;;;;;;5063956;28;20024;-36
2024/03/08 04:07:34;;;;;;;29.65;26.33;;;;;;;;;;5063989;28;20033;-40
2024/03/08 04:10:01;;;;;;;28.92;25.98;;;;;;;;;;5064018;28;20029;-37
2024/03/08 04:12:29;;;;;;;28.00;25.05;;;;;;;;;;5063801;28;20373;-40
2024/03/08 04:14:56;;;;;;;27.70;24.80;;;;;;;;;;5063788;28;20084;-37
2024/03/08 04:17:26;;;;;;;28.42;25.52;;;;;;;;;;5063884;28;20032;-40
2024/03/08 04:19:52;;;;;;;31.10;25.88;;;;;;;;;;5063727;28;20205;-36
2024/03/08 04:22:19;;;;;;;29.02;26.15;;;;;;;;;;5051338;28;20056;-46
2024/03/08 04:24:46;;;;;;;28.90;25.80;;;;;;;;;;5063244;28;20336;-36
2024/03/08 04:27:14;;;;;;;28.60;25.33;;;;;;;;;;5057547;28;20037;-48
2024/03/08 04:29:41;;;;;;;28.17;25.48;;;;;;;;;;5046339;28;20021;-36
2024/03/08 04:32:08;;;;;;;29.30;26.15;;;;;;;;;;5043688;28;20377;-40
2024/03/08 04:34:35;;;;;;;28.65;25.77;;;;;;;;;;5043823;28;20201;-37
2024/03/08 04:37:02;;;;;;;28.52;25.63;;;;;;;;;;5043669;28;20021;-44
2024/03/08 04:39:29;;;;;;;31.17;26.08;;;;;;;;;;5043916;28;20024;-44
2024/03/08 04:41:59;;;;;;;27.58;24.85;;;;;;;;;;5044024;28;20029;-45
2024/03/08 04:44:26;;;;;;;29.10;25.08;;;;;;;;;;5043735;28;20021;-37
2024/03/08 04:46:52;;;;;;;27.50;24.42;;;;;;;;;;5043509;28;20116;-37
2024/03/08 04:49:21;;;;;;;28.48;25.65;;;;;;;;;;5055172;28;20029;-49
2024/03/08 04:51:48;;;;;;;27.92;25.33;;;;;;;;;;5057839;28;20328;-48
2024/03/08 04:54:14;;;;;;;29.45;26.20;;;;;;;;;;5045248;28;20089;-38
2024/03/08 04:56:41;;;;;;;28.52;25.70;;;;;;;;;;5043876;28;20028;-45
2024/03/08 04:59:08;;;;;;;27.73;25.05;;;;;;;;;;5043435;28;20028;-46
2024/03/08 05:01:37;;;;;;;29.30;26.15;;;;;;;;;;5043363;28;20073;-47
2024/03/08 05:04:05;;;;;;;27.83;25.00;;;;;;;;;;5043300;28;20024;-44
2024/03/08 05:06:33;;;;;;;28.92;26.23;;;;;;;;;;5047051;28;20235;-49
2024/03/08 05:08:59;;;;;;;28.48;25.65;;;;;;;;;;5047189;28;20030;-42
2024/03/08 05:11:26;;;;;;;29.48;25.30;;;;;;;;;;5049425;28;20037;-49
2024/03/08 05:13:53;;;;;;;29.08;26.38;;;;;;;;;;5058318;28;20031;-38
2024/03/08 05:16:22;;;;;;;29.13;26.20;;;;;;;;;;5067420;28;20016;-36
2024/03/08 05:18:49;;;;;;;29.90;26.85;;;;;;;;;;5066779;28;20021;-41
2024/03/08 05:21:17;;;;;;;27.80;25.17;;;;;;;;;;5065465;28;20024;-38
2024/03/08 05:23:43;;;;;;;28.20;25.67;;;;;;;;;;5058695;28;20025;-39
2024/03/08 05:26:10;;;;;;;28.38;25.70;;;;;;;;;;5057126;28;20083;-43
2024/03/08 05:28:37;;;;;;;36.28;26.67;;;;;;;;;;5056674;28;20018;-38
2024/03/08 05:31:03;;;;;;;28.42;25.42;;;;;;;;;;5055535;28;20024;-37
2024/03/08 05:33:30;;;;;;;29.30;26.40;;;;;;;;;;5056724;28;20017;-40
2024/03/08 05:35:56;;;;;;;29.05;26.10;;;;;;;;;;5056797;28;20064;-45
2024/03/08 05:38:24;;;;;;;28.90;26.08;;;;;;;;;;5055080;28;20040;-40
2024/03/08 05:40:51;;;;;;;30.00;27.10;;;;;;;;;;5056924;28;20076;-44
2024/03/08 05:43:19;;;;;;;28.85;26.05;;;;;;;;;;5056580;28;20025;-49
2024/03/08 05:45:46;;;;;;;29.10;26.48;;;;;;;;;;5054864;28;20340;-43
2024/03/08 05:48:14;;;;;;;28.80;26.08;;;;;;;;;;5056261;28;20024;-44
2024/03/08 05:50:43;;;;;;;29.98;27.02;;;;;;;;;;5057248;28;20022;-46
2024/03/08 05:53:09;;;;;;;30.05;27.08;;;;;;;;;;5055304;28;20035;-40
2024/03/08 05:55:36;;;;;;;30.05;27.27;;;;;;;;;;5055730;28;20104;-40
2024/03/08 05:58:03;;;;;;;29.90;27.00;;;;;;;;;;5056930;28;20055;-40
2024/03/08 06:00:31;;;;;;;30.17;27.30;;;;;;;;;;5055283;28;20025;-45
2024/03/08 06:02:58;;;;;;;28.70;26.02;;;;;;;;;;5055129;28;20025;-47
2024/03/08 06:05:25;;;;;;;28.92;26.25;;;;;;;;;;5056823;28;20023;-38
2024/03/08 06:07:53;;;;;;;29.48;26.65;;;;;;;;;;5055275;28;20096;-38
2024/03/08 06:10:20;;;;;;;29.15;26.35;;;;;;;;;;5054959;28;20048;-42
2024/03/08 06:12:46;;;;;;;28.88;25.98;;;;;;;;;;5056529;28;20269;-37
2024/03/08 06:15:16;;;;;;;28.45;25.73;;;;;;;;;;5055518;28;20017;-39
2024/03/08 06:17:43;;;;;;;30.48;24.70;;;;;;;;;;5053342;28;20036;-40
2024/03/08 06:20:13;;;;;;;27.83;25.13;;;;;;;;;;5064081;28;20025;-53
2024/03/08 06:22:44;;;;;;;27.73;24.85;;;;;;;;;;5063252;28;20033;-45
2024/03/08 06:25:14;;;;;;;27.60;24.98;;;;;;;;;;5057073;28;20063;-38
2024/03/08 06:27:42;;;;;;;28.58;25.52;;;;;;;;;;5054861;28;20345;-42
2024/03/08 06:30:09;;;;;;;27.85;25.33;;;;;;;;;;5054855;28;20033;-38
2024/03/08 06:32:39;;;;;;;26.42;23.83;;;;;;;;;;5056212;28;20028;-41
2024/03/08 06:35:10;;;;;;;28.02;25.45;;;;;;;;;;5055238;28;20013;-37
2024/03/08 06:37:37;;;;;;;28.45;24.75;;;;;;;;;;5065983;28;20217;-46
2024/03/08 06:40:03;;;;;;;28.95;25.70;;;;;;;;;;5065901;28;20336;-43
2024/03/08 06:42:35;;;;;;;27.00;24.25;;;;;;;;;;5065826;28;20092;-48
2024/03/08 06:45:04;;;;;;;26.45;23.65;;;;;;;;;;5065277;28;20051;-44
2024/03/08 06:47:31;;;;;;;26.00;23.77;;;;;;;;;;5062892;28;20036;-40
2024/03/08 06:49:58;;;;;;;27.00;24.23;;;;;;;;;;5062136;28;20213;-37
2024/03/08 06:52:25;;;;;;;27.23;24.60;;;;;;;;;;5064760;28;20025;-39
2024/03/08 06:54:52;;;;;;;26.55;24.00;;;;;;;;;;5065350;28;20264;-37
2024/03/08 06:57:21;;;;;;;27.48;24.55;;;;;;;;;;5065429;28;20028;-39
2024/03/08 06:59:48;;;;;;;27.13;24.50;;;;;;;;;;5064856;28;20235;-44
2024/03/08 07:02:15;;;;;;;26.77;24.05;;;;;;;;;;5065113;28;20055;-40
2024/03/08 07:04:42;;;;;;;25.98;23.35;;;;;;;;;;5065320;28;20016;-38
2024/03/08 07:07:11;;;;;;;27.20;24.45;;;;;;;;;;5065355;28;20024;-38
2024/03/08 07:09:38;;;;;;;25.98;23.48;;;;;;;;;;5064939;28;20228;-40
2024/03/08 07:12:04;;;;;;;26.63;24.10;;;;;;;;;;5065532;28;20284;-37
2024/03/08 07:14:31;;;;;;;26.92;24.05;;;;;;;;;;5064711;28;20015;-41
2024/03/08 07:16:57;;;;;;;26.38;23.88;;;;;;;;;;5065556;28;20025;-37
2024/03/08 07:19:24;;;;;;;27.90;25.10;;;;;;;;;;5065194;28;20021;-40
2024/03/08 07:21:51;;;;;;;26.60;24.23;;;;;;;;;;5065511;28;20128;-35
2024/03/08 07:26:44;;;;;;;26.75;24.15;;;;;;;;;;5065487;28;20021;-37
2024/03/08 07:29:10;;;;;;;27.17;24.70;;;;;;;;;;5064907;28;20092;-38
2024/03/08 07:34:07;;;;;;;27.05;24.55;;;;;;;;;;5064675;28;20020;-43
2024/03/08 07:36:37;;;;;;;28.30;25.50;;;;;;;;;;5065088;28;20080;-37
2024/03/08 07:39:09;;;;;;;26.23;23.83;;;;;;;;;;5065390;28;20023;-37
2024/03/08 07:41:36;;;;;;;26.55;24.17;;;;;;;;;;5065066;28;20033;-39
2024/03/08 07:44:03;;;;;;;26.75;24.35;;;;;;;;;;5064606;28;20210;-40
2024/03/08 07:46:30;;;;;;;27.60;25.08;;;;;;;;;;5064177;28;20045;-36
2024/03/08 07:48:56;;;;;;;28.05;25.35;;;;;;;;;;5064291;28;20024;-45
2024/03/08 07:51:23;;;;;;;27.63;25.13;;;;;;;;;;5064441;28;20047;-44
2024/03/08 07:53:49;;;;;;;26.77;24.10;;;;;;;;;;5064243;28;20080;-43
2024/03/08 07:56:18;;;;;;;26.98;24.38;;;;;;;;;;5064926;28;20054;-46
2024/03/08 07:58:45;;;;;;;26.92;24.42;;;;;;;;;;5063957;28;20025;-48
2024/03/08 08:01:18;;;;;;;26.83;24.25;;;;;;;;;;5064413;28;20021;-51
2024/03/08 08:03:45;;;;;;;28.23;25.52;;;;;;;;;;5063927;28;20032;-41
2024/03/08 08:06:15;;;;;;;28.23;25.42;;;;;;;;;;5064209;28;20021;-45
2024/03/08 08:08:45;;;;;;;27.95;25.42;;;;;;;;;;5063972;28;20020;-53
2024/03/08 08:11:12;;;;;;;26.98;24.25;;;;;;;;;;5064160;28;20048;-47
2024/03/08 08:13:39;;;;;;;27.00;24.50;;;;;;;;;;5063934;28;20028;-36
2024/03/08 08:16:06;;;;;;;26.15;23.80;;;;;;;;;;5064404;28;20063;-38
2024/03/08 08:18:33;;;;;;;27.95;24.95;;;;;;;;;;5064045;28;20028;-37
2024/03/08 08:21:02;;;;;;;27.75;24.90;;;;;;;;;;5064021;28;20044;-39
2024/03/08 08:23:29;;;;;;;28.70;25.70;;;;;;;;;;5063989;28;20131;-38
2024/03/08 08:25:56;;;;;;;27.70;24.10;;;;;;;;;;5064529;28;20035;-39
2024/03/08 08:28:24;;;;;;;28.38;25.42;;;;;;;;;;5063658;28;20037;-43
2024/03/08 08:30:50;;;;;;;28.00;25.02;;;;;;;;;;5064207;28;20029;-53
2024/03/08 08:33:17;;;;;;;29.25;26.15;;;;;;;;;;5063717;28;20031;-40
2024/03/08 08:35:44;;;;;;;28.00;25.20;;;;;;;;;;5063857;28;20021;-53
2024/03/08 08:38:11;;;;;;;28.48;25.45;;;;;;;;;;5063936;28;20025;-44
2024/03/08 08:40:38;;;;;;;29.25;26.13;;;;;;;;;;5065899;28;20208;-43
2024/03/08 08:43:04;;;;;;;26.95;24.25;;;;;;;;;;5067682;28;20048;-51
2024/03/08 08:45:31;;;;;;;27.38;24.17;;;;;;;;;;5067676;28;20108;-41
2024/03/08 08:47:59;;;;;;;27.92;24.92;;;;;;;;;;5067690;28;20029;-44
2024/03/08 08:50:28;;;;;;;26.88;24.27;;;;;;;;;;5068224;28;20167;-41
2024/03/08 08:52:55;;;;;;;25.23;22.65;;;;;;;;;;5067727;28;20279;-45
2024/03/08 08:55:25;;;;;;;24.90;22.35;;;;;;;;;;5068102;28;20025;-42
2024/03/08 08:57:52;;;;;;;23.50;21.25;;;;;;;;;;5067739;28;20033;-43
2024/03/08 09:00:20;;;;;;;23.85;21.45;;;;;;;;;;5067916;28;20025;-43
2024/03/08 09:02:48;;;;;;;23.25;21.08;;;;;;;;;;5067105;28;20092;-43
2024/03/08 09:05:16;;;;;;;23.38;21.38;;;;;;;;;;5067626;28;20268;-36
2024/03/08 09:07:45;;;;;;;24.45;20.98;;;;;;;;;;5067250;28;20025;-37
2024/03/08 09:10:13;;;;;;;24.60;22.20;;;;;;;;;;5067193;28;20317;-37
2024/03/08 09:12:40;;;;;;;25.00;22.63;;;;;;;;;;5067690;28;20340;-40
2024/03/08 09:15:12;;;;;;;26.50;23.98;;;;;;;;;;5067522;28;20253;-40
2024/03/08 09:17:44;;;;;;;27.30;24.70;;;;;;;;;;5067161;28;20212;-38
2024/03/08 09:20:14;;;;;;;27.02;24.58;;;;;;;;;;5067141;28;20304;-48
2024/03/08 09:22:44;;;;;;;28.58;25.77;;;;;;;;;;5067208;28;20040;-48
2024/03/08 09:25:10;;;;;;;27.30;24.73;;;;;;;;;;5067021;28;20044;-48
2024/03/08 09:27:39;;;;;;;28.13;25.50;;;;;;;;;;5067128;28;20025;-39
2024/03/08 09:30:06;;;;;;;27.77;25.10;;;;;;;;;;5067131;28;20111;-42
2024/03/08 09:32:33;;;;;;;28.73;25.90;;;;;;;;;;5066595;28;20247;-37
2024/03/08 09:35:01;;;;;;;27.60;25.10;;;;;;;;;;5067350;28;20066;-42
2024/03/08 09:37:28;;;;;;;27.63;25.13;;;;;;;;;;5066663;28;20240;-49
2024/03/08 09:39:54;;;;;;;28.42;25.73;;;;;;;;;;5066662;28;20167;-41
2024/03/08 09:42:21;;;;;;;29.65;26.75;;;;;;;;;;5067230;28;20050;-41
2024/03/08 09:44:48;;;;;;;28.63;25.92;;;;;;;;;;5066832;28;20036;-40
2024/03/08 09:47:16;;;;;;;28.05;25.55;;;;;;;;;;5066329;28;20106;-41
2024/03/08 09:49:43;;;;;;;29.05;26.25;;;;;;;;;;5066644;28;20033;-43
2024/03/08 09:52:12;;;;;;;29.05;26.45;;;;;;;;;;5066750;28;20037;-42
2024/03/08 09:54:39;;;;;;;27.80;25.15;;;;;;;;;;5066546;28;20020;-41
2024/03/08 09:57:09;;;;;;;29.30;25.63;;;;;;;;;;5066636;28;20058;-38
2024/03/08 10:02:05;;;;;;;28.20;25.38;;;;;;;;;;5066445;28;20155;-41
2024/03/08 10:04:32;;;;;;;32.83;25.95;;;;;;;;;;5066228;28;20020;-37
2024/03/08 10:06:59;;;;;;;41.67;27.13;;;;;;;;;;5066640;28;20371;-38
2024/03/08 10:09:27;;;;;;;32.83;26.65;;;;;;;;;;5066210;28;20037;-38
2024/03/08 10:12:00;;;;;;;30.77;26.38;;;;;;;;;;5066473;28;20306;-41
2024/03/08 10:14:27;;;;;;;30.15;25.67;;;;;;;;;;5065828;28;20029;-41
2024/03/08 10:16:53;;;;;;;30.38;27.35;;;;;;;;;;5066464;28;20209;-39
2024/03/08 10:19:20;;;;;;;29.08;26.15;;;;;;;;;;5066178;28;20029;-39
2024/03/08 10:21:53;;;;;;;30.02;26.95;;;;;;;;;;5066440;28;20020;-38
2024/03/08 10:24:19;;;;;;;35.05;25.83;;;;;;;;;;5065665;28;20043;-44
2024/03/08 10:26:46;;;;;;;29.35;26.27;;;;;;;;;;5066495;28;20091;-37
2024/03/08 10:29:15;;;;;;;31.63;25.98;;;;;;;;;;5065541;28;20039;-39
2024/03/08 10:31:45;;;;;;;28.60;25.88;;;;;;;;;;5065381;28;20024;-37
2024/03/08 10:34:11;;;;;;;28.00;25.30;;;;;;;;;;5065570;28;20029;-37
2024/03/08 10:36:40;;;;;;;28.63;25.65;;;;;;;;;;5066033;28;20023;-41
2024/03/08 10:39:33;;;;;;;29.80;26.25;;;;;;;;;;5065388;28;20025;-42
2024/03/08 10:42:03;;;;;;;30.33;27.17;;;;;;;;;;5062868;28;20036;-41
2024/03/08 10:44:29;;;;;;;30.95;26.42;;;;;;;;;;5064850;28;20321;-43
2024/03/08 10:46:59;;;;;;;28.90;25.70;;;;;;;;;;5053061;28;20049;-45
2024/03/08 10:49:27;;;;;;;29.60;25.80;;;;;;;;;;5045263;28;20033;-44
2024/03/08 10:51:53;;;;;;;28.77;25.77;;;;;;;;;;5045652;28;20201;-47
2024/03/08 10:54:21;;;;;;;96.47;30.63;;;;;;;;;;5045466;28;20030;-49
2024/03/08 10:56:50;;;;;;;58.13;27.08;;;;;;;;;;5045617;28;20033;-46
2024/03/08 10:59:18;;;;;;;41.55;27.63;;;;;;;;;;5045136;28;20017;-43
2024/03/08 11:01:45;;;;;;;39.83;27.90;;;;;;;;;;5045394;28;20033;-45
2024/03/08 11:04:12;;;;;;;40.65;26.75;;;;;;;;;;5044843;28;20029;-46
2024/03/08 11:06:38;;;;;;;35.15;26.98;;;;;;;;;;5046038;28;20021;-40
2024/03/08 11:09:23;;;;;;;36.65;27.00;;;;;;;;;;5044930;28;20052;-44
2024/03/08 11:11:50;;;;;;;31.38;26.15;;;;;;;;;;5045507;28;20209;-39
2024/03/08 11:14:35;;;;;;;37.40;26.38;;;;;;;;;;5045212;28;20026;-50
2024/03/08 11:17:06;;;;;;;52.95;26.55;;;;;;;;;;5045018;28;20026;-42
2024/03/08 11:19:33;;;;;;;44.40;25.50;;;;;;;;;;5047761;28;20067;-41
2024/03/08 11:22:04;;;;;;;39.05;25.75;;;;;;;;;;5065329;28;20067;-39
2024/03/08 11:24:40;;;;;;;37.30;25.60;;;;;;;;;;5065218;28;20359;-39
2024/03/08 11:27:07;;;;;;;39.60;25.52;;;;;;;;;;5064520;28;20071;-43
2024/03/08 11:29:39;;;;;;;63.10;27.45;;;;;;;;;;5064677;28;20025;-40
2024/03/08 11:32:12;;;;;;;58.17;27.40;;;;;;;;;;5064691;28;20025;-41
2024/03/08 11:34:45;;;;;;;54.75;26.67;;;;;;;;;;5064432;28;20201;-40
2024/03/08 11:37:15;;;;;;;53.85;28.08;;;;;;;;;;5063645;28;20066;-42
2024/03/08 11:39:49;;;;;;;67.65;27.60;;;;;;;;;;5064416;28;20016;-38
2024/03/08 11:42:17;;;;;;;70.13;29.45;;;;;;;;;;5064374;28;20032;-37
2024/03/08 11:44:47;;;;;;;63.13;29.20;;;;;;;;;;5064296;28;20336;-39
2024/03/08 11:47:14;;;;;;;62.67;28.73;;;;;;;;;;5064103;28;20082;-36
2024/03/08 11:49:44;;;;;;;48.95;27.60;;;;;;;;;;5064350;28;20317;-37
2024/03/08 11:52:14;;;;;;;69.15;29.33;;;;;;;;;;5064287;28;20040;-37
2024/03/08 11:54:41;;;;;;;82.18;29.23;;;;;;;;;;5064394;28;20029;-39
2024/03/08 11:57:09;;;;;;;67.43;28.23;;;;;;;;;;5064341;28;20175;-41
2024/03/08 11:59:36;;;;;;;132.07;33.20;;;;;;;;;;5064190;28;20209;-40
2024/03/08 12:02:04;;;;;;;99.20;31.38;;;;;;;;;;5064055;28;20028;-38
2024/03/08 12:04:31;;;;;;;72.38;29.55;;;;;;;;;;5062165;28;20025;-49
2024/03/08 12:07:02;;;;;;;52.90;28.58;;;;;;;;;;5064310;28;20099;-47
2024/03/08 12:09:29;;;;;;;49.70;28.92;;;;;;;;;;5063861;28;20059;-48
2024/03/08 12:11:55;;;;;;;50.60;28.60;;;;;;;;;;5064707;28;20017;-42
2024/03/08 12:14:22;;;;;;;46.28;27.63;;;;;;;;;;5063250;28;20043;-45
2024/03/08 12:16:51;;;;;;;44.78;28.75;;;;;;;;;;5064178;28;20056;-49
2024/03/08 12:19:18;;;;;;;41.17;27.55;;;;;;;;;;5064139;28;20080;-50
2024/03/08 12:21:48;;;;;;;67.93;30.17;;;;;;;;;;5064499;28;20305;-49
2024/03/08 12:24:21;;;;;;;78.68;31.48;;;;;;;;;;5063747;28;20067;-44
2024/03/08 12:26:48;;;;;;;66.80;29.52;;;;;;;;;;5064147;28;20070;-44
2024/03/08 12:29:28;;;;;;;49.97;29.63;;;;;;;;;;5063657;28;20094;-43
2024/03/08 12:32:00;;;;;;;46.22;29.65;;;;;;;;;;5064161;28;20024;-45
2024/03/08 12:34:28;;;;;;;40.47;29.73;;;;;;;;;;5063464;28;20041;-49
2024/03/08 12:36:55;;;;;;;42.58;29.35;;;;;;;;;;5064057;28;20021;-44
2024/03/08 12:39:26;;;;;;;36.60;29.73;;;;;;;;;;5063717;28;20024;-48
2024/03/08 12:41:53;;;;;;;38.08;28.25;;;;;;;;;;5064172;28;20225;-43
2024/03/08 12:44:21;;;;;;;45.60;29.67;;;;;;;;;;5063712;28;20036;-44
2024/03/08 12:46:48;;;;;;;38.65;29.05;;;;;;;;;;5063774;28;20053;-51
2024/03/08 12:49:17;;;;;;;44.45;29.00;;;;;;;;;;5063433;28;20035;-47
2024/03/08 12:51:47;;;;;;;32.60;29.15;;;;;;;;;;5064406;28;20036;-44
2024/03/08 12:54:13;;;;;;;39.15;29.40;;;;;;;;;;5063616;28;20021;-44
2024/03/08 12:56:40;;;;;;;35.45;28.38;;;;;;;;;;5063868;28;20083;-42
2024/03/08 12:59:10;;;;;;;38.88;27.27;;;;;;;;;;5063460;28;20221;-43
2024/03/08 13:01:40;;;;;;;48.08;29.20;;;;;;;;;;5063328;28;20028;-45
2024/03/08 13:04:08;;;;;;;39.33;31.08;;;;;;;;;;5063244;28;20048;-48
2024/03/08 13:06:37;;;;;;;43.10;30.05;;;;;;;;;;5063738;28;20313;-45
2024/03/08 13:09:05;;;;;;;38.80;30.45;;;;;;;;;;5063541;28;20032;-46
2024/03/08 13:11:36;;;;;;;49.25;31.77;;;;;;;;;;5063730;28;20372;-44
2024/03/08 13:14:04;;;;;;;44.65;30.23;;;;;;;;;;5063586;28;20036;-37
2024/03/08 13:16:30;;;;;;;39.03;29.00;;;;;;;;;;5063561;28;20040;-42
2024/03/08 13:18:57;;;;;;;41.63;29.17;;;;;;;;;;5063530;28;20296;-42
2024/03/08 13:21:24;;;;;;;53.47;29.75;;;;;;;;;;5063555;28;20050;-37
2024/03/08 13:23:52;;;;;;;39.65;29.58;;;;;;;;;;5062966;28;20024;-40
2024/03/08 13:26:19;;;;;;;35.13;28.75;;;;;;;;;;5064870;28;20319;-38
2024/03/08 13:28:46;;;;;;;34.08;27.20;;;;;;;;;;5066888;28;20051;-40
2024/03/08 13:31:14;;;;;;;33.97;28.25;;;;;;;;;;5067156;28;20197;-45
2024/03/08 13:33:46;;;;;;;32.05;28.58;;;;;;;;;;5066985;28;20032;-49
2024/03/08 13:36:16;;;;;;;31.60;28.23;;;;;;;;;;5067109;28;20028;-45
2024/03/08 13:38:43;;;;;;;35.97;27.63;;;;;;;;;;5066609;28;20024;-46
2024/03/08 13:41:14;;;;;;;38.60;27.98;;;;;;;;;;5067253;28;20021;-49
2024/03/08 13:43:51;;;;;;;31.15;27.85;;;;;;;;;;5066582;28;20361;-43
2024/03/08 13:46:18;;;;;;;33.38;29.35;;;;;;;;;;5066443;28;20040;-47
2024/03/08 13:48:44;;;;;;;36.25;29.80;;;;;;;;;;5066499;28;20017;-42
2024/03/08 13:51:15;;;;;;;33.55;27.85;;;;;;;;;;5066889;28;20025;-51
2024/03/08 13:53:41;;;;;;;35.45;28.23;;;;;;;;;;5066583;28;20184;-45
2024/03/08 13:56:10;;;;;;;31.42;28.02;;;;;;;;;;5066798;28;20036;-45
2024/03/08 13:58:37;;;;;;;33.60;27.50;;;;;;;;;;5066168;28;20024;-50
2024/03/08 14:01:05;;;;;;;51.60;28.75;;;;;;;;;;5066916;28;20024;-42
2024/03/08 14:03:32;;;;;;;79.78;29.77;;;;;;;;;;5066777;28;20301;-40
2024/03/08 14:05:59;;;;;;;69.20;30.40;;;;;;;;;;5066892;28;20028;-45
2024/03/08 14:08:27;;;;;;;92.53;30.35;;;;;;;;;;5066120;28;20032;-38
2024/03/08 14:10:54;;;;;;;105.38;31.00;;;;;;;;;;5066480;28;20067;-40
2024/03/08 14:13:21;;;;;;;84.75;30.73;;;;;;;;;;5065839;28;20049;-38
2024/03/08 14:15:48;;;;;;;68.82;29.08;;;;;;;;;;5066294;28;20024;-37
2024/03/08 14:18:15;;;;;;;67.13;29.10;;;;;;;;;;5066249;28;20025;-42
2024/03/08 14:20:42;;;;;;;63.22;28.35;;;;;;;;;;5066415;28;20053;-40
2024/03/08 14:23:08;;;;;;;69.55;29.60;;;;;;;;;;5066243;28;20029;-40
2024/03/08 14:25:35;;;;;;;69.57;28.95;;;;;;;;;;5065954;28;20228;-43
2024/03/08 14:28:04;;;;;;;56.00;27.60;;;;;;;;;;5065726;28;20058;-40
2024/03/08 14:30:40;;;;;;;46.78;28.63;;;;;;;;;;5066082;28;20020;-43